Time;durP1;ratioP1;P1;durP2;ratioP2;P2;SDS_P1;SDS_P2;PMS_P1;PMS_P2;Temp;Humidity;BMP_temperature;BMP_pressure;BME280_temperature;BME280_humidity;BME280_pressure;Samples;Min_cycle;Max_cycle;Signal;HPM_P1;HPM_P2
2022/04/30 00:02:14;;;;;;;;;;;6.90;99.90;;;;;;5013044;28;36326;-59
2022/04/30 00:04:43;;;;;;;;;;;6.90;99.90;;;;;;5014717;28;37457;-59
2022/04/30 00:07:10;;;;;;;;;;;6.90;99.90;;;;;;5008833;28;37044;-59
2022/04/30 00:09:39;;;;;;;;;;;6.90;99.90;;;;;;5012479;28;36578;-59
2022/04/30 00:12:06;;;;;;;;;;;6.90;99.90;;;;;;5012729;28;38948;-59
2022/04/30 00:14:33;;;;;;;;;;;6.90;99.90;;;;;;5013221;28;38413;-59
2022/04/30 00:17:00;;;;;;;;;;;6.90;99.90;;;;;;5013571;28;38466;-59
2022/04/30 00:19:28;;;;;;;;;;;6.90;99.90;;;;;;5013877;28;36861;-53
2022/04/30 00:21:57;;;;;;;;;;;6.90;99.90;;;;;;5016835;28;36496;-54
2022/04/30 00:24:24;;;;;;;;;;;6.80;99.90;;;;;;5017432;28;36877;-55
2022/04/30 00:26:53;;;;;;;;;;;6.80;99.90;;;;;;5017945;28;37083;-54
2022/04/30 00:29:20;;;;;;;;;;;6.90;99.90;;;;;;5018581;28;35851;-54
2022/04/30 00:31:48;;;;;;;;;;;6.80;99.90;;;;;;5017449;28;39151;-54
2022/04/30 00:34:15;;;;;;;;;;;6.90;99.90;;;;;;5018075;28;39433;-53
2022/04/30 00:36:42;;;;;;;;;;;6.80;99.90;;;;;;5019015;28;38067;-55
2022/04/30 00:39:11;;;;;;;;;;;6.90;99.90;;;;;;5016928;28;36458;-55
2022/04/30 00:41:41;;;;;;;;;;;6.90;99.90;;;;;;5017433;28;37876;-52
2022/04/30 00:44:08;;;;;;;;;;;6.80;99.90;;;;;;5015955;28;36603;-54
2022/04/30 00:46:35;;;;;;;;;;;6.80;99.90;;;;;;5017858;28;38082;-54
2022/04/30 00:49:03;;;;;;;;;;;6.80;99.90;;;;;;5017850;28;35207;-55
2022/04/30 00:51:30;;;;;;;;;;;6.80;99.90;;;;;;5017293;28;38362;-55
2022/04/30 00:53:57;;;;;;;;;;;6.80;99.90;;;;;;5016862;28;37759;-54
2022/04/30 00:56:27;;;;;;;;;;;6.80;99.90;;;;;;5016147;28;37351;-53
2022/04/30 00:58:55;;;;;;;;;;;6.70;99.90;;;;;;5018518;28;36490;-54
2022/04/30 01:01:23;;;;;;;;;;;6.70;99.90;;;;;;5017561;28;38528;-55
2022/04/30 01:03:50;;;;;;;;;;;6.70;99.90;;;;;;5016580;28;37558;-54
2022/04/30 01:06:18;;;;;;;;;;;6.80;99.90;;;;;;5016338;28;37895;-56
2022/04/30 01:08:45;;;;;;;;;;;6.70;99.90;;;;;;5016665;28;38369;-55
2022/04/30 01:11:15;;;;;;;;;;;6.70;99.90;;;;;;5017610;28;38138;-53
2022/04/30 01:13:44;;;;;;;;;;;6.70;99.90;;;;;;5017066;28;37724;-55
2022/04/30 01:16:12;;;;;;;;;;;6.70;99.90;;;;;;5016528;28;36939;-55
2022/04/30 01:18:39;;;;;;;;;;;6.60;99.90;;;;;;5017660;28;36173;-55
2022/04/30 01:21:10;;;;;;;;;;;6.60;99.90;;;;;;5016311;28;39529;-54
2022/04/30 01:23:42;;;;;;;;;;;6.70;99.90;;;;;;5015774;28;38024;-55
2022/04/30 01:26:09;;;;;;;;;;;6.60;99.90;;;;;;5015928;28;36999;-55
2022/04/30 01:28:37;;;;;;;;;;;6.60;99.90;;;;;;5015477;28;37137;-55
2022/04/30 01:37:22;;;;;;;;;;;6.70;99.90;;;;;;5014793;28;38475;-53
2022/04/30 01:39:22;;;;;;;;;;;6.80;99.90;;;;;;5015847;28;37602;-55
2022/04/30 01:41:49;;;;;;;;;;;6.80;99.90;;;;;;5015633;28;36161;-54
2022/04/30 01:44:19;;;;;;;;;;;6.80;99.90;;;;;;5015428;28;38385;-55
2022/04/30 01:46:46;;;;;;;;;;;6.80;99.90;;;;;;5015051;28;37522;-56
2022/04/30 01:49:16;;;;;;;;;;;6.80;99.90;;;;;;5015235;28;36547;-55
2022/04/30 01:51:50;;;;;;;;;;;6.80;99.90;;;;;;5015331;28;40970;-55
2022/04/30 01:54:17;;;;;;;;;;;6.80;99.90;;;;;;5014805;28;38162;-52
2022/04/30 01:56:45;;;;;;;;;;;6.80;99.90;;;;;;5014245;28;37961;-55
2022/04/30 01:59:13;;;;;;;;;;;6.80;99.90;;;;;;5015198;28;36146;-54
2022/04/30 02:01:43;;;;;;;;;;;6.80;99.90;;;;;;5014549;28;37609;-55
2022/04/30 02:04:11;;;;;;;;;;;6.80;99.90;;;;;;5014653;28;40361;-55
2022/04/30 02:06:40;;;;;;;;;;;6.90;99.90;;;;;;5015689;28;37055;-55
2022/04/30 02:09:08;;;;;;;;;;;6.80;99.90;;;;;;5016574;28;36879;-54
2022/04/30 02:11:35;;;;;;;;;;;6.80;99.90;;;;;;5016692;28;37549;-55
2022/04/30 02:14:04;;;;;;;;;;;6.80;99.90;;;;;;5016056;28;40109;-55
2022/04/30 02:16:33;;;;;;;;;;;6.90;99.90;;;;;;5016195;28;37117;-54
2022/04/30 02:19:00;;;;;;;;;;;6.80;99.90;;;;;;5017157;28;34793;-54
2022/04/30 02:21:29;;;;;;;;;;;6.70;99.90;;;;;;5015462;28;38145;-54
2022/04/30 02:23:58;;;;;;;;;;;6.70;99.90;;;;;;5015321;28;38650;-54
2022/04/30 02:26:27;;;;;;;;;;;6.70;99.90;;;;;;5016240;28;38105;-55
2022/04/30 02:28:55;;;;;;;;;;;6.70;99.90;;;;;;5015136;28;39021;-54
2022/04/30 02:31:26;;;;;;;;;;;6.70;99.90;;;;;;5016130;28;38732;-54
2022/04/30 02:33:56;;;;;;;;;;;6.70;99.90;;;;;;5015836;28;36543;-54
2022/04/30 02:36:26;;;;;;;;;;;6.70;99.90;;;;;;5015941;28;38308;-54
2022/04/30 02:38:54;;;;;;;;;;;6.70;99.90;;;;;;5015632;28;38696;-54
2022/04/30 02:41:21;;;;;;;;;;;6.60;99.90;;;;;;5015708;28;37618;-53
2022/04/30 02:43:50;;;;;;;;;;;6.60;99.90;;;;;;5015574;28;37885;-54
2022/04/30 02:46:17;;;;;;;;;;;6.60;99.90;;;;;;5014757;28;38337;-55
2022/04/30 02:48:45;;;;;;;;;;;6.60;99.90;;;;;;5016494;28;37835;-53
2022/04/30 02:51:15;;;;;;;;;;;6.60;99.90;;;;;;5015598;28;38823;-54
2022/04/30 02:53:45;;;;;;;;;;;6.60;99.90;;;;;;5014689;28;39001;-54
2022/04/30 02:56:12;;;;;;;;;;;6.60;99.90;;;;;;5016238;28;37447;-53
2022/04/30 03:01:24;;;;;;;;;;;6.70;99.90;;;;;;5014128;28;38783;-54
2022/04/30 03:03:52;;;;;;;;;;;6.60;99.90;;;;;;5013562;28;37957;-54
2022/04/30 03:06:19;;;;;;;;;;;6.60;99.90;;;;;;5015688;28;37040;-53
2022/04/30 03:08:47;;;;;;;;;;;6.70;99.90;;;;;;5015317;28;36537;-54
2022/04/30 03:11:14;;;;;;;;;;;6.70;99.90;;;;;;5014195;28;37768;-54
2022/04/30 03:13:41;;;;;;;;;;;6.80;99.90;;;;;;5013782;28;39648;-54
2022/04/30 03:21:45;;;;;;;;;;;6.70;99.90;;;;;;5013328;28;41572;-54
2022/04/30 03:24:13;;;;;;;;;;;6.80;99.90;;;;;;5015527;28;39336;-55
2022/04/30 03:26:40;;;;;;;;;;;6.80;99.90;;;;;;5015760;28;37008;-54
2022/04/30 03:29:07;;;;;;;;;;;6.80;99.90;;;;;;5013550;28;36239;-54
2022/04/30 03:31:34;;;;;;;;;;;6.90;99.90;;;;;;5014078;28;38145;-54
2022/04/30 03:34:03;;;;;;;;;;;6.80;99.90;;;;;;5015234;28;38893;-53
2022/04/30 03:36:30;;;;;;;;;;;6.80;99.90;;;;;;5013117;28;37054;-54
2022/04/30 03:38:58;;;;;;;;;;;6.80;99.90;;;;;;5014686;28;37367;-54
2022/04/30 03:41:25;;;;;;;;;;;6.90;99.90;;;;;;5014004;28;38135;-54
2022/04/30 03:43:52;;;;;;;;;;;6.90;99.90;;;;;;5014654;28;39249;-53
2022/04/30 03:46:19;;;;;;;;;;;6.90;99.90;;;;;;5014626;28;36024;-55
2022/04/30 03:48:51;;;;;;;;;;;6.80;99.90;;;;;;5014826;28;35595;-54
2022/04/30 03:51:20;;;;;;;;;;;6.80;99.90;;;;;;5015390;28;40670;-54
2022/04/30 03:53:48;;;;;;;;;;;6.80;99.90;;;;;;5014352;28;40352;-53
2022/04/30 03:56:16;;;;;;;;;;;6.80;99.90;;;;;;5017779;28;37007;-54
2022/04/30 03:58:43;;;;;;;;;;;6.80;99.90;;;;;;5017453;28;36412;-55
2022/04/30 04:01:11;;;;;;;;;;;6.80;99.90;;;;;;5018778;28;37530;-54
2022/04/30 04:03:39;;;;;;;;;;;6.90;99.90;;;;;;5018348;28;37654;-55
2022/04/30 04:06:07;;;;;;;;;;;6.90;99.90;;;;;;5017497;28;37405;-54
2022/04/30 04:08:35;;;;;;;;;;;7.00;99.90;;;;;;5018120;28;36382;-54
2022/04/30 04:11:03;;;;;;;;;;;7.00;99.90;;;;;;5016667;28;37586;-53
2022/04/30 04:18:59;;;;;;;;;;;7.10;99.90;;;;;;5017709;28;37112;-54
2022/04/30 04:21:28;;;;;;;;;;;7.10;99.90;;;;;;5017625;28;37725;-55
2022/04/30 04:26:41;;;;;;;;;;;7.20;99.90;;;;;;5019120;28;38039;-58
2022/04/30 04:29:10;;;;;;;;;;;7.30;99.90;;;;;;5017217;28;37494;-58
2022/04/30 04:31:37;;;;;;;;;;;7.30;99.90;;;;;;5017643;28;36524;-58
2022/04/30 04:34:04;;;;;;;;;;;7.30;99.90;;;;;;5017413;28;38208;-58
2022/04/30 04:36:34;;;;;;;;;;;7.40;99.90;;;;;;5016913;28;34149;-58
2022/04/30 04:39:03;;;;;;;;;;;7.40;99.90;;;;;;5017290;28;36522;-58
2022/04/30 04:41:30;;;;;;;;;;;7.50;99.90;;;;;;5017572;28;41875;-58
2022/04/30 04:43:57;;;;;;;;;;;7.50;99.90;;;;;;5016718;28;38170;-55
2022/04/30 04:46:24;;;;;;;;;;;7.50;99.90;;;;;;5017396;28;40458;-53
2022/04/30 04:48:52;;;;;;;;;;;7.60;99.90;;;;;;5017390;28;36381;-54
2022/04/30 04:51:20;;;;;;;;;;;7.60;99.90;;;;;;5017175;28;36575;-54
2022/04/30 04:53:47;;;;;;;;;;;7.70;99.90;;;;;;5017113;28;37447;-54
2022/04/30 04:56:15;;;;;;;;;;;7.70;99.90;;;;;;5017572;28;37337;-54
2022/04/30 04:58:44;;;;;;;;;;;7.80;99.90;;;;;;5018225;28;36333;-55
2022/04/30 05:01:11;;;;;;;;;;;7.80;99.90;;;;;;5016284;28;39588;-55
2022/04/30 05:03:38;;;;;;;;;;;7.90;99.90;;;;;;5016033;28;37711;-54
2022/04/30 05:06:05;;;;;;;;;;;7.90;99.90;;;;;;5016353;28;38695;-54
2022/04/30 05:08:32;;;;;;;;;;;7.90;99.90;;;;;;5016893;28;35291;-54
2022/04/30 05:11:00;;;;;;;;;;;7.90;99.90;;;;;;5017884;28;38366;-54
2022/04/30 05:13:28;;;;;;;;;;;8.00;99.90;;;;;;5016196;28;37696;-54
2022/04/30 05:15:55;;;;;;;;;;;8.00;99.90;;;;;;5017468;28;36787;-53
2022/04/30 05:18:22;;;;;;;;;;;8.00;99.90;;;;;;5016781;28;37934;-55
2022/04/30 05:20:49;;;;;;;;;;;8.00;99.90;;;;;;5017920;28;38477;-54
2022/04/30 05:23:16;;;;;;;;;;;8.10;99.90;;;;;;5018257;28;38003;-53
2022/04/30 05:25:43;;;;;;;;;;;8.20;99.90;;;;;;5015888;28;37119;-55
2022/04/30 05:28:11;;;;;;;;;;;8.20;99.90;;;;;;5017417;28;36601;-55
2022/04/30 05:30:39;;;;;;;;;;;8.20;99.90;;;;;;5016180;28;39251;-54
2022/04/30 05:33:06;;;;;;;;;;;8.30;99.90;;;;;;5017326;28;38129;-55
2022/04/30 05:35:33;;;;;;;;;;;8.40;99.90;;;;;;5015518;28;36033;-53
2022/04/30 05:38:00;;;;;;;;;;;8.40;99.90;;;;;;5014676;28;37800;-53
2022/04/30 05:40:28;;;;;;;;;;;8.50;99.90;;;;;;5017222;28;37440;-53
2022/04/30 05:42:55;;;;;;;;;;;8.50;99.90;;;;;;5016589;28;37717;-55
2022/04/30 05:45:22;;;;;;;;;;;8.60;99.90;;;;;;5018251;28;36965;-54
2022/04/30 05:47:50;;;;;;;;;;;8.80;99.90;;;;;;5018068;28;37364;-55
2022/04/30 05:50:17;;;;;;;;;;;8.90;99.90;;;;;;5016216;28;38097;-53
2022/04/30 05:52:44;;;;;;;;;;;9.00;99.90;;;;;;5018670;28;36834;-55
2022/04/30 05:55:12;;;;;;;;;;;9.10;99.90;;;;;;5016409;28;37562;-55
2022/04/30 05:57:39;;;;;;;;;;;9.30;99.90;;;;;;5017415;28;36809;-54
2022/04/30 06:00:07;;;;;;;;;;;9.40;99.90;;;;;;5016204;28;37381;-55
2022/04/30 06:02:34;;;;;;;;;;;9.60;99.90;;;;;;5016515;28;37718;-54
2022/04/30 06:05:03;;;;;;;;;;;9.90;99.90;;;;;;5015754;28;37116;-59
2022/04/30 06:07:30;;;;;;;;;;;10.20;99.90;;;;;;5015755;28;37751;-59
2022/04/30 06:09:58;;;;;;;;;;;10.40;99.90;;;;;;5015501;28;38308;-56
2022/04/30 06:12:25;;;;;;;;;;;10.50;99.90;;;;;;5015373;28;38886;-55
2022/04/30 06:14:52;;;;;;;;;;;10.60;99.90;;;;;;5015849;28;37935;-55
2022/04/30 06:17:19;;;;;;;;;;;10.70;99.90;;;;;;5017483;28;37462;-55
2022/04/30 06:19:46;;;;;;;;;;;10.60;99.90;;;;;;5015454;28;37769;-55
2022/04/30 06:22:18;;;;;;;;;;;10.70;99.90;;;;;;5016608;28;39751;-55
2022/04/30 06:24:45;;;;;;;;;;;10.60;99.90;;;;;;5015641;28;36295;-55
2022/04/30 06:27:12;;;;;;;;;;;10.60;99.90;;;;;;5016329;28;36266;-59
2022/04/30 06:29:39;;;;;;;;;;;10.50;99.90;;;;;;5015522;28;37711;-59
2022/04/30 06:32:07;;;;;;;;;;;10.50;99.90;;;;;;5015027;28;38747;-59
2022/04/30 06:34:34;;;;;;;;;;;10.40;99.90;;;;;;5015626;28;37311;-59
2022/04/30 06:37:01;;;;;;;;;;;10.40;99.90;;;;;;5014274;28;38696;-59
2022/04/30 06:39:30;;;;;;;;;;;10.40;99.90;;;;;;5015032;28;39742;-55
2022/04/30 06:41:57;;;;;;;;;;;10.40;99.90;;;;;;5015153;28;37830;-55
2022/04/30 06:44:24;;;;;;;;;;;10.40;99.90;;;;;;5013483;28;37036;-55
2022/04/30 06:46:52;;;;;;;;;;;10.40;99.90;;;;;;5016006;28;36110;-55
2022/04/30 06:49:21;;;;;;;;;;;10.40;99.90;;;;;;5013603;28;37936;-55
2022/04/30 06:51:48;;;;;;;;;;;10.40;99.90;;;;;;5011907;28;38870;-59
2022/04/30 06:57:11;;;;;;;;;;;10.40;99.90;;;;;;5015932;28;36186;-59
2022/04/30 06:59:41;;;;;;;;;;;10.30;99.90;;;;;;5012978;28;37974;-59
2022/04/30 07:02:21;;;;;;;;;;;10.30;99.90;;;;;;5016549;28;38559;-59
2022/04/30 07:04:52;;;;;;;;;;;10.40;99.90;;;;;;5015161;28;35166;-58
2022/04/30 07:07:19;;;;;;;;;;;10.40;99.90;;;;;;5016234;28;35843;-60
2022/04/30 07:09:54;;;;;;;;;;;10.40;99.90;;;;;;5014440;28;37703;-59
2022/04/30 07:12:26;;;;;;;;;;;10.30;99.90;;;;;;5015055;28;38114;-59
2022/04/30 07:14:56;;;;;;;;;;;10.30;99.90;;;;;;5012779;28;37891;-59
2022/04/30 07:17:25;;;;;;;;;;;10.30;99.90;;;;;;5015165;28;36366;-59
2022/04/30 07:19:54;;;;;;;;;;;10.30;99.90;;;;;;5010160;28;36798;-59
2022/04/30 07:22:24;;;;;;;;;;;10.30;99.70;;;;;;5014982;28;38610;-59
2022/04/30 07:24:57;;;;;;;;;;;10.30;99.60;;;;;;5013398;28;36503;-59
2022/04/30 07:27:31;;;;;;;;;;;10.30;99.40;;;;;;5013924;28;39427;-59
2022/04/30 07:30:01;;;;;;;;;;;10.30;99.40;;;;;;5012454;28;40412;-60
2022/04/30 07:32:30;;;;;;;;;;;10.30;99.50;;;;;;5011506;28;37374;-59
2022/04/30 07:34:58;;;;;;;;;;;10.30;99.60;;;;;;5009978;28;37259;-59
2022/04/30 07:37:27;;;;;;;;;;;10.30;99.70;;;;;;5008937;28;35743;-59
2022/04/30 07:39:55;;;;;;;;;;;10.30;99.80;;;;;;5009090;28;38900;-59
2022/04/30 07:42:26;;;;;;;;;;;10.30;99.90;;;;;;5011668;28;37079;-59
2022/04/30 07:44:59;;;;;;;;;;;10.40;99.90;;;;;;5010010;28;37017;-59
2022/04/30 07:47:27;;;;;;;;;;;10.40;99.90;;;;;;5009989;28;35852;-59
2022/04/30 07:49:55;;;;;;;;;;;10.40;99.80;;;;;;5009200;28;39238;-59
2022/04/30 07:52:23;;;;;;;;;;;10.40;99.60;;;;;;5006835;28;37050;-59
2022/04/30 07:54:53;;;;;;;;;;;10.40;99.90;;;;;;5010379;28;36921;-59
2022/04/30 07:57:22;;;;;;;;;;;10.40;99.90;;;;;;5020445;28;36075;-59
2022/04/30 07:59:49;;;;;;;;;;;10.50;99.70;;;;;;5014515;28;37213;-59
2022/04/30 08:02:17;;;;;;;;;;;10.50;99.90;;;;;;5014294;28;38034;-60
2022/04/30 08:04:50;;;;;;;;;;;10.60;99.90;;;;;;5017471;28;37490;-60
2022/04/30 08:07:18;;;;;;;;;;;10.60;99.90;;;;;;5017514;28;35710;-59
2022/04/30 08:09:49;;;;;;;;;;;10.70;99.90;;;;;;5018617;28;36798;-59
2022/04/30 08:12:20;;;;;;;;;;;10.80;99.90;;;;;;5019430;28;37073;-59
2022/04/30 08:14:50;;;;;;;;;;;10.90;99.90;;;;;;5017727;28;36954;-59
2022/04/30 08:17:19;;;;;;;;;;;10.90;99.90;;;;;;5015887;28;35775;-60
2022/04/30 08:19:49;;;;;;;;;;;11.00;99.70;;;;;;5016309;28;37708;-59
2022/04/30 08:22:17;;;;;;;;;;;11.10;98.70;;;;;;5016477;28;37128;-59
2022/04/30 08:24:56;;;;;;;;;;;11.20;98.10;;;;;;5017456;28;37215;-59
2022/04/30 08:27:25;;;;;;;;;;;11.30;97.60;;;;;;5018789;28;35824;-59
2022/04/30 08:29:53;;;;;;;;;;;11.30;97.70;;;;;;5011088;28;39079;-59
2022/04/30 08:32:27;;;;;;;;;;;11.40;97.50;;;;;;5013314;28;36785;-59
2022/04/30 08:34:58;;;;;;;;;;;11.50;97.70;;;;;;5016141;28;37824;-59
2022/04/30 08:37:27;;;;;;;;;;;11.50;97.10;;;;;;5014388;28;38170;-60
2022/04/30 08:40:00;;;;;;;;;;;11.60;96.60;;;;;;5017164;28;37807;-60
2022/04/30 08:42:39;;;;;;;;;;;11.60;95.80;;;;;;5018285;28;37844;-60
2022/04/30 08:45:08;;;;;;;;;;;11.60;96.10;;;;;;5019142;28;36298;-60
2022/04/30 08:47:41;;;;;;;;;;;11.70;95.50;;;;;;5019134;28;37097;-60
2022/04/30 08:50:10;;;;;;;;;;;11.70;96.10;;;;;;5018159;28;37561;-60
2022/04/30 08:52:39;;;;;;;;;;;11.70;95.60;;;;;;5017779;28;37394;-60
2022/04/30 08:55:12;;;;;;;;;;;11.70;95.80;;;;;;5017578;28;36523;-59
2022/04/30 08:57:40;;;;;;;;;;;11.80;96.10;;;;;;5019174;28;35789;-59
2022/04/30 09:00:12;;;;;;;;;;;11.80;95.40;;;;;;5018485;28;36982;-60
2022/04/30 09:02:52;;;;;;;;;;;11.80;95.00;;;;;;5018983;28;36912;-60
2022/04/30 09:05:19;;;;;;;;;;;11.70;94.40;;;;;;5019705;28;36387;-60
2022/04/30 09:07:53;;;;;;;;;;;11.70;95.10;;;;;;5015910;28;37543;-59
2022/04/30 09:10:25;;;;;;;;;;;11.80;94.90;;;;;;5015639;28;37629;-59
2022/04/30 09:13:14;;;;;;;;;;;11.80;95.50;;;;;;5024923;28;37962;-59
2022/04/30 09:15:44;;;;;;;;;;;11.80;95.10;;;;;;5019465;28;36764;-60
2022/04/30 09:18:15;;;;;;;;;;;11.80;95.20;;;;;;5014511;28;36384;-59
2022/04/30 09:20:45;;;;;;;;;;;11.80;95.30;;;;;;5016201;28;39203;-60
2022/04/30 09:23:27;;;;;;;;;;;11.80;95.10;;;;;;5019635;28;37241;-60
2022/04/30 09:25:57;;;;;;;;;;;11.90;95.00;;;;;;5018446;28;37589;-59
2022/04/30 09:28:27;;;;;;;;;;;12.00;95.20;;;;;;5017313;28;35868;-60
2022/04/30 09:31:09;;;;;;;;;;;12.00;94.10;;;;;;5019566;28;36598;-60
2022/04/30 09:33:39;;;;;;;;;;;12.00;93.70;;;;;;5022469;28;38421;-60
2022/04/30 09:38:55;;;;;;;;;;;12.10;94.40;;;;;;5017880;28;38030;-60
2022/04/30 09:41:29;;;;;;;;;;;12.20;94.10;;;;;;5018566;28;37047;-60
2022/04/30 09:44:04;;;;;;;;;;;12.20;94.60;;;;;;5015104;28;38145;-60
2022/04/30 09:46:35;;;;;;;;;;;12.20;93.10;;;;;;5017547;28;36129;-59
2022/04/30 09:54:56;;;;;;;;;;;12.30;94.50;;;;;;4972693;28;38311;-59
2022/04/30 09:57:32;;;;;;;;;;;12.30;94.20;;;;;;5008047;28;37451;-60
2022/04/30 10:00:02;;;;;;;;;;;12.30;94.00;;;;;;5019049;28;34300;-60
2022/04/30 10:02:32;;;;;;;;;;;12.30;93.80;;;;;;5018383;28;37934;-60
2022/04/30 10:05:14;;;;;;;;;;;12.30;94.10;;;;;;5020710;28;36797;-60
2022/04/30 10:07:47;;;;;;;;;;;12.30;94.50;;;;;;5031563;28;30537;-60
2022/04/30 10:10:18;;;;;;;;;;;12.30;94.10;;;;;;5019176;28;35336;-59
2022/04/30 10:12:50;;;;;;;;;;;12.20;93.80;;;;;;5017056;28;35674;-60
2022/04/30 10:15:20;;;;;;;;;;;12.10;94.40;;;;;;5015818;28;36739;-60
2022/04/30 10:17:53;;;;;;;;;;;12.10;94.30;;;;;;5018218;28;36009;-60
2022/04/30 10:20:29;;;;;;;;;;;12.00;94.20;;;;;;5014792;28;36471;-60
2022/04/30 10:22:59;;;;;;;;;;;11.90;93.80;;;;;;5023426;28;36777;-60
2022/04/30 10:25:35;;;;;;;;;;;11.90;93.60;;;;;;5009896;28;35984;-60
2022/04/30 10:28:05;;;;;;;;;;;11.80;94.00;;;;;;5011431;28;37279;-60
2022/04/30 10:30:38;;;;;;;;;;;11.80;93.50;;;;;;5013901;28;37573;-59
2022/04/30 10:33:09;;;;;;;;;;;11.70;94.00;;;;;;5009472;28;35719;-60
2022/04/30 10:35:40;;;;;;;;;;;11.60;93.60;;;;;;5011121;28;36434;-60
2022/04/30 10:38:12;;;;;;;;;;;11.50;94.30;;;;;;5014319;28;37434;-59
2022/04/30 10:40:41;;;;;;;;;;;11.40;94.40;;;;;;5013049;28;34867;-60
2022/04/30 10:43:19;;;;;;;;;;;11.40;94.20;;;;;;5012989;28;36541;-59
2022/04/30 10:45:47;;;;;;;;;;;11.40;94.20;;;;;;5014633;28;38198;-60
2022/04/30 10:48:14;;;;;;;;;;;11.30;94.50;;;;;;5012853;28;36554;-59
2022/04/30 10:50:45;;;;;;;;;;;11.30;94.40;;;;;;5011180;28;36284;-59
2022/04/30 10:53:14;;;;;;;;;;;11.30;94.70;;;;;;5014959;28;37857;-59
2022/04/30 10:55:41;;;;;;;;;;;11.30;94.80;;;;;;5015302;28;39102;-60
2022/04/30 10:58:08;;;;;;;;;;;11.20;95.00;;;;;;5015593;28;37154;-59
2022/04/30 11:00:35;;;;;;;;;;;11.20;95.10;;;;;;5015220;28;37804;-59
2022/04/30 11:03:09;;;;;;;;;;;11.20;95.10;;;;;;5011984;28;38077;-60
2022/04/30 11:05:37;;;;;;;;;;;11.20;95.80;;;;;;5015226;28;37741;-59
2022/04/30 11:08:05;;;;;;;;;;;11.20;96.10;;;;;;5014947;28;37901;-59
2022/04/30 11:10:33;;;;;;;;;;;11.20;95.80;;;;;;5016815;28;36925;-59
2022/04/30 11:13:04;;;;;;;;;;;11.20;96.10;;;;;;5016536;28;39326;-60
2022/04/30 11:15:33;;;;;;;;;;;11.20;96.10;;;;;;5016575;28;37716;-59
2022/04/30 11:18:00;;;;;;;;;;;11.20;95.50;;;;;;5017516;28;38652;-60
2022/04/30 11:20:28;;;;;;;;;;;11.20;95.80;;;;;;5014354;28;37481;-60
2022/04/30 11:22:55;;;;;;;;;;;11.30;96.00;;;;;;5015801;28;38170;-59
2022/04/30 11:25:32;;;;;;;;;;;11.30;96.00;;;;;;5015965;28;38092;-59
2022/04/30 11:27:59;;;;;;;;;;;11.30;95.90;;;;;;5015421;28;35219;-59
2022/04/30 11:30:27;;;;;;;;;;;11.30;95.80;;;;;;5015771;28;37617;-59
2022/04/30 11:32:54;;;;;;;;;;;11.30;95.20;;;;;;5016590;28;37643;-59
2022/04/30 11:35:21;;;;;;;;;;;11.40;95.20;;;;;;5016332;28;37870;-59
2022/04/30 11:37:50;;;;;;;;;;;11.40;95.10;;;;;;5015388;28;37236;-59
2022/04/30 11:40:17;;;;;;;;;;;11.40;95.10;;;;;;5015941;28;37321;-59
2022/04/30 11:42:54;;;;;;;;;;;11.40;95.10;;;;;;5017032;28;37578;-59
2022/04/30 11:45:24;;;;;;;;;;;11.50;95.20;;;;;;5016009;28;37957;-59
2022/04/30 11:47:51;;;;;;;;;;;11.50;94.80;;;;;;5016160;28;38182;-59
2022/04/30 11:50:19;;;;;;;;;;;11.60;94.40;;;;;;5015024;28;37055;-59
2022/04/30 11:52:46;;;;;;;;;;;11.60;94.50;;;;;;5017453;28;37450;-59
2022/04/30 11:55:13;;;;;;;;;;;11.60;94.40;;;;;;5016564;28;38286;-59
2022/04/30 11:57:42;;;;;;;;;;;11.70;94.50;;;;;;5017195;28;38521;-59
2022/04/30 12:00:11;;;;;;;;;;;11.70;94.40;;;;;;5016663;28;35127;-59
2022/04/30 12:02:40;;;;;;;;;;;11.80;94.40;;;;;;5017292;28;38598;-59
2022/04/30 12:05:07;;;;;;;;;;;11.80;94.60;;;;;;5013505;28;36615;-60
2022/04/30 12:07:38;;;;;;;;;;;11.90;94.10;;;;;;5013821;28;38171;-59
2022/04/30 12:10:14;;;;;;;;;;;11.90;94.20;;;;;;5016321;28;37157;-59
2022/04/30 12:12:42;;;;;;;;;;;11.90;94.30;;;;;;5016724;28;36595;-59
2022/04/30 12:15:18;;;;;;;;;;;12.00;93.90;;;;;;5016582;28;39107;-59
2022/04/30 12:17:45;;;;;;;;;;;12.00;93.30;;;;;;5019576;28;37576;-59
2022/04/30 12:25:49;;;;;;;;;;;11.80;92.60;;;;;;5019901;28;40012;-59
2022/04/30 12:28:16;;;;;;;;;;;11.70;93.00;;;;;;5019280;28;37352;-59
2022/04/30 12:30:51;;;;;;;;;;;11.60;93.60;;;;;;5017997;28;36194;-59
2022/04/30 12:33:18;;;;;;;;;;;11.50;93.80;;;;;;5018796;28;40061;-59
2022/04/30 12:35:53;;;;;;;;;;;11.40;94.10;;;;;;5018425;28;38535;-59
2022/04/30 12:38:20;;;;;;;;;;;11.40;94.30;;;;;;5019017;28;37014;-59
2022/04/30 12:40:50;;;;;;;;;;;11.30;94.50;;;;;;5020586;28;36592;-60
2022/04/30 12:43:18;;;;;;;;;;;11.30;94.60;;;;;;5019208;28;37683;-60
2022/04/30 12:45:47;;;;;;;;;;;11.30;94.80;;;;;;5018934;28;38690;-59
2022/04/30 12:48:15;;;;;;;;;;;11.20;94.50;;;;;;5018132;28;37968;-59
2022/04/30 12:50:42;;;;;;;;;;;11.20;94.50;;;;;;5018137;28;37041;-59
2022/04/30 12:53:10;;;;;;;;;;;11.20;94.50;;;;;;5019016;28;39198;-59
2022/04/30 12:55:38;;;;;;;;;;;11.20;94.50;;;;;;5018908;28;37737;-59
2022/04/30 12:58:05;;;;;;;;;;;11.20;94.40;;;;;;5018840;28;37661;-59
2022/04/30 13:00:33;;;;;;;;;;;11.20;94.60;;;;;;5019351;28;36702;-59
2022/04/30 13:03:00;;;;;;;;;;;11.20;94.40;;;;;;5020349;28;36413;-60
2022/04/30 13:05:29;;;;;;;;;;;11.20;94.40;;;;;;5016776;28;38329;-59
2022/04/30 13:07:56;;;;;;;;;;;11.20;94.00;;;;;;5018308;28;38771;-59
2022/04/30 13:13:31;;;;;;;;;;;11.20;93.60;;;;;;5020012;28;38722;-60
2022/04/30 13:15:58;;;;;;;;;;;11.20;93.40;;;;;;5017341;28;36756;-59
2022/04/30 13:18:25;;;;;;;;;;;11.30;93.40;;;;;;5019535;28;37990;-59
2022/04/30 13:20:54;;;;;;;;;;;11.30;93.60;;;;;;5015855;28;35143;-58
2022/04/30 13:23:21;;;;;;;;;;;11.40;93.40;;;;;;5019500;28;38664;-59
2022/04/30 13:25:48;;;;;;;;;;;11.40;92.90;;;;;;5018150;28;38786;-59
2022/04/30 13:28:15;;;;;;;;;;;11.40;92.70;;;;;;5016219;28;36065;-59
2022/04/30 13:30:42;;;;;;;;;;;11.40;92.90;;;;;;5017558;28;37039;-59
2022/04/30 13:33:09;;;;;;;;;;;11.50;92.70;;;;;;5018481;28;37525;-59
2022/04/30 13:35:36;;;;;;;;;;;11.50;93.00;;;;;;5017353;28;38180;-59
2022/04/30 13:38:05;;;;;;;;;;;11.50;92.50;;;;;;5017186;28;37906;-59
2022/04/30 13:40:32;;;;;;;;;;;11.50;92.50;;;;;;5017501;28;37850;-59
2022/04/30 13:42:59;;;;;;;;;;;11.50;92.50;;;;;;5018869;28;37378;-59
2022/04/30 13:45:26;;;;;;;;;;;11.60;92.40;;;;;;5018347;28;38021;-60
2022/04/30 13:47:53;;;;;;;;;;;11.60;91.90;;;;;;5018810;28;37545;-59
2022/04/30 13:50:22;;;;;;;;;;;11.60;91.90;;;;;;5015541;28;36234;-59
2022/04/30 13:52:50;;;;;;;;;;;11.60;91.80;;;;;;5018491;28;38648;-59
2022/04/30 13:55:18;;;;;;;;;;;11.70;91.80;;;;;;5017520;28;38091;-59
2022/04/30 13:57:45;;;;;;;;;;;11.70;91.90;;;;;;5020423;28;38979;-60
2022/04/30 14:00:15;;;;;;;;;;;11.70;91.80;;;;;;5021355;28;36435;-59
2022/04/30 14:02:43;;;;;;;;;;;11.70;91.30;;;;;;5021221;28;39591;-59
2022/04/30 14:05:10;;;;;;;;;;;11.70;91.00;;;;;;5019796;28;37592;-59
2022/04/30 14:07:37;;;;;;;;;;;11.70;91.30;;;;;;5020795;28;37118;-59
2022/04/30 14:10:05;;;;;;;;;;;11.70;91.30;;;;;;5019833;28;38631;-59
2022/04/30 14:12:34;;;;;;;;;;;11.70;91.70;;;;;;5020915;28;36496;-59
2022/04/30 14:15:00;;;;;;;;;;;11.80;91.70;;;;;;5020295;28;37134;-59
2022/04/30 14:20:12;;;;;;;;;;;11.70;91.30;;;;;;5021352;28;38391;-60
2022/04/30 14:22:39;;;;;;;;;;;11.80;91.30;;;;;;5020800;28;37555;-59
2022/04/30 14:25:09;;;;;;;;;;;11.70;91.60;;;;;;5021431;28;39138;-59
2022/04/30 14:27:38;;;;;;;;;;;11.70;91.50;;;;;;5020933;28;35050;-59
2022/04/30 14:30:06;;;;;;;;;;;11.70;91.70;;;;;;5021047;28;37052;-59
2022/04/30 14:32:33;;;;;;;;;;;11.60;91.90;;;;;;5021158;28;39184;-59
2022/04/30 14:35:01;;;;;;;;;;;11.60;91.70;;;;;;5020246;28;36624;-59
2022/04/30 14:37:30;;;;;;;;;;;11.60;91.50;;;;;;5020305;28;38383;-59
2022/04/30 14:39:57;;;;;;;;;;;11.50;91.50;;;;;;5020062;28;36472;-59
2022/04/30 14:42:25;;;;;;;;;;;11.50;91.50;;;;;;5021245;28;38049;-59
2022/04/30 14:44:53;;;;;;;;;;;11.50;91.70;;;;;;5020568;28;36922;-59
2022/04/30 14:47:20;;;;;;;;;;;11.50;91.90;;;;;;5019969;28;36636;-59
2022/04/30 14:49:47;;;;;;;;;;;11.50;92.00;;;;;;5020587;28;36977;-59
2022/04/30 14:52:15;;;;;;;;;;;11.50;92.30;;;;;;5021212;28;37423;-59
2022/04/30 14:54:42;;;;;;;;;;;11.50;92.30;;;;;;5020893;28;37960;-60
2022/04/30 14:57:09;;;;;;;;;;;11.50;91.80;;;;;;5020288;28;37204;-59
2022/04/30 14:59:36;;;;;;;;;;;11.40;91.90;;;;;;5021316;28;38077;-59
2022/04/30 15:02:05;;;;;;;;;;;11.40;91.60;;;;;;5020215;28;37947;-59
2022/04/30 15:04:32;;;;;;;;;;;11.40;91.40;;;;;;5019626;28;38023;-59
2022/04/30 15:07:00;;;;;;;;;;;11.40;92.30;;;;;;5021380;28;37160;-59
2022/04/30 15:09:27;;;;;;;;;;;11.50;92.00;;;;;;5018848;28;36396;-59
2022/04/30 15:11:54;;;;;;;;;;;11.50;92.10;;;;;;5020071;28;37806;-59
2022/04/30 15:14:21;;;;;;;;;;;11.50;92.20;;;;;;5019704;28;38359;-59
2022/04/30 15:16:48;;;;;;;;;;;11.50;92.40;;;;;;5020242;28;36773;-59